createdAt,value
2018-03-04T00:01:43.985Z,69.70
2018-03-04T00:04:10.970Z,66.53
2018-03-04T00:06:37.846Z,59.80
2018-03-04T00:09:04.118Z,66.17
2018-03-04T00:11:31.729Z,59.03
2018-03-04T00:13:58.625Z,46.33
2018-03-04T00:16:26.294Z,50.90
2018-03-04T00:18:53.750Z,50.30
2018-03-04T00:21:20.089Z,55.63
2018-03-04T00:23:48.376Z,64.73
2018-03-04T00:26:15.358Z,42.57
2018-03-04T00:28:42.026Z,44.53
2018-03-04T00:31:08.815Z,53.13
2018-03-04T00:33:35.798Z,61.70
2018-03-04T00:36:02.058Z,54.93
2018-03-04T00:38:28.334Z,54.33
2018-03-04T00:40:55.336Z,67.70
2018-03-04T00:43:21.761Z,75.00
2018-03-04T00:45:48.470Z,62.93
2018-03-04T00:48:15.791Z,52.20
2018-03-04T00:50:42.670Z,55.20
2018-03-04T00:53:08.922Z,48.50
2018-03-04T00:55:35.915Z,43.80
2018-03-04T00:58:02.443Z,52.37
2018-03-04T01:00:28.697Z,48.60
2018-03-04T01:02:55.350Z,48.20
2018-03-04T01:05:22.121Z,68.40
2018-03-04T01:07:48.375Z,62.33
2018-03-04T01:10:15.390Z,68.80
2018-03-04T01:12:42.102Z,59.17
2018-03-04T01:15:08.710Z,60.23
2018-03-04T01:17:35.694Z,50.03
2018-03-04T01:20:02.721Z,65.53
2018-03-04T01:22:30.174Z,52.63
2018-03-04T01:24:57.614Z,60.80
2018-03-04T01:27:23.974Z,54.70
2018-03-04T01:29:51.324Z,50.63
2018-03-04T01:32:18.313Z,57.70
2018-03-04T01:34:44.557Z,58.27
2018-03-04T01:37:11.057Z,52.07
2018-03-04T01:39:38.054Z,78.60
2018-03-04T01:42:04.413Z,104.37
2018-03-04T01:44:31.273Z,85.43
2018-03-04T01:46:57.926Z,84.33
2018-03-04T01:49:24.975Z,54.40
2018-03-04T01:51:51.262Z,48.70
2018-03-04T01:54:17.509Z,50.03
2018-03-04T01:56:43.742Z,56.43
2018-03-04T01:59:10.093Z,75.20
2018-03-04T02:01:36.769Z,69.60
2018-03-04T02:04:03.774Z,70.50
2018-03-04T02:06:30.653Z,52.67
2018-03-04T02:08:58.396Z,58.60
2018-03-04T02:11:24.984Z,57.87
2018-03-04T02:13:52.557Z,68.33
2018-03-04T02:16:19.905Z,63.33
2018-03-04T02:18:47.670Z,60.03
2018-03-04T02:21:14.703Z,65.27
2018-03-04T02:23:41.391Z,63.13
2018-03-04T02:26:07.649Z,73.50
2018-03-04T02:28:33.901Z,67.37
2018-03-04T02:31:00.689Z,53.90
2018-03-04T02:33:27.734Z,73.87
2018-03-04T02:35:54.721Z,75.47
2018-03-04T02:38:21.339Z,90.87
2018-03-04T02:40:48.321Z,77.57
2018-03-04T02:43:14.669Z,79.30
2018-03-04T02:45:41.873Z,86.20
2018-03-04T02:48:08.112Z,75.90
2018-03-04T02:50:35.573Z,89.73
2018-03-04T02:53:03.041Z,92.37
2018-03-04T02:55:30.094Z,93.17
2018-03-04T02:57:57.080Z,109.67
2018-03-04T03:00:23.345Z,110.13
2018-03-04T03:02:49.990Z,97.40
2018-03-04T03:05:16.645Z,101.97
2018-03-04T03:07:44.841Z,103.10
2018-03-04T03:10:11.837Z,90.13
2018-03-04T03:12:38.646Z,94.73
2018-03-04T03:15:06.097Z,89.23
2018-03-04T03:17:33.581Z,91.57
2018-03-04T03:20:01.126Z,96.47
2018-03-04T03:22:27.376Z,85.23
2018-03-04T03:24:54.376Z,88.70
2018-03-04T03:27:20.630Z,68.27
2018-03-04T03:29:47.309Z,80.23
2018-03-04T03:32:14.297Z,88.10
2018-03-04T03:34:40.542Z,80.37
2018-03-04T03:37:06.790Z,63.27
2018-03-04T03:39:33.046Z,98.43
2018-03-04T03:42:00.134Z,92.10
2018-03-04T03:44:27.039Z,73.37
2018-03-04T03:46:55.318Z,87.40
2018-03-04T03:49:21.561Z,73.63
2018-03-04T03:51:48.128Z,94.67
2018-03-04T03:54:14.368Z,89.73
2018-03-04T03:56:40.628Z,73.27
2018-03-04T03:59:07.525Z,71.77
2018-03-04T04:01:34.886Z,65.47
2018-03-04T04:04:01.877Z,93.53
2018-03-04T04:06:28.568Z,92.93
2018-03-04T04:08:54.809Z,77.57
2018-03-04T04:11:21.069Z,60.60
2018-03-04T04:13:47.902Z,66.47
2018-03-04T04:16:15.629Z,88.73
2018-03-04T04:18:42.424Z,64.27
2018-03-04T04:21:09.430Z,56.70
2018-03-04T04:23:35.706Z,47.90
2018-03-04T04:26:03.062Z,47.30
2018-03-04T04:28:30.039Z,46.20
2018-03-04T04:30:56.864Z,55.37
2018-03-04T04:33:23.853Z,50.60
2018-03-04T04:35:50.097Z,53.80
2018-03-04T04:38:16.901Z,79.50
2018-03-04T04:40:43.888Z,66.80
2018-03-04T04:43:10.141Z,44.67
2018-03-04T04:45:36.804Z,52.80
2018-03-04T04:48:03.585Z,42.30
2018-03-04T04:50:30.573Z,38.00
2018-03-04T04:52:56.823Z,49.27
2018-03-04T04:55:23.094Z,66.20
2018-03-04T04:57:50.073Z,46.30
2018-03-04T05:00:16.408Z,67.43
2018-03-04T05:02:43.479Z,66.50
2018-03-04T05:05:10.161Z,75.70
2018-03-04T05:07:36.413Z,58.20
2018-03-04T05:10:03.408Z,71.20
2018-03-04T05:12:30.072Z,83.23
2018-03-04T05:14:56.741Z,66.00
2018-03-04T05:17:22.990Z,71.60
2018-03-04T05:19:49.973Z,75.47
2018-03-04T05:22:16.241Z,50.57
2018-03-04T05:24:42.501Z,57.37
2018-03-04T05:27:09.979Z,76.87
2018-03-04T05:29:38.249Z,53.77
2018-03-04T05:32:05.889Z,46.80
2018-03-04T05:34:32.549Z,48.77
2018-03-04T05:36:58.824Z,48.37
2018-03-04T05:39:25.072Z,65.87
2018-03-04T05:41:51.728Z,68.33
2018-03-04T05:44:18.346Z,63.83
2018-03-04T05:46:44.586Z,62.37
2018-03-04T05:49:10.832Z,65.33
2018-03-04T05:51:37.491Z,57.43
2018-03-04T05:54:04.265Z,52.37
2018-03-04T05:56:31.257Z,36.37
2018-03-04T05:58:57.839Z,45.70
2018-03-04T06:01:24.713Z,56.33
2018-03-04T06:03:51.694Z,41.33
2018-03-04T06:06:18.368Z,53.60
2018-03-04T06:08:44.625Z,53.07
2018-03-04T06:11:13.928Z,39.60
2018-03-04T06:13:42.113Z,40.50
2018-03-04T06:16:08.873Z,36.80
2018-03-04T06:18:35.893Z,51.10
2018-03-04T06:21:02.181Z,67.40
2018-03-04T06:23:28.800Z,49.63
2018-03-04T06:25:55.786Z,61.23
2018-03-04T06:28:22.449Z,69.17
2018-03-04T06:30:49.120Z,44.73
2018-03-04T06:33:16.197Z,44.97
2018-03-04T06:35:43.208Z,51.00
2018-03-04T06:38:09.785Z,43.43
2018-03-04T06:40:36.789Z,61.63
2018-03-04T06:43:03.149Z,56.30
2018-03-04T06:45:30.120Z,40.60
2018-03-04T06:47:56.368Z,39.70
2018-03-04T06:50:23.345Z,38.23
2018-03-04T06:52:49.853Z,35.93
2018-03-04T06:55:16.910Z,37.93
2018-03-04T06:57:44.320Z,53.53
2018-03-04T07:00:10.607Z,40.80
2018-03-04T07:02:37.940Z,32.40
2018-03-04T07:05:04.616Z,39.27
2018-03-04T07:07:32.160Z,45.30
2018-03-04T07:09:58.767Z,59.83
2018-03-04T07:12:25.569Z,38.27
2018-03-04T07:14:52.839Z,48.57
2018-03-04T07:17:20.381Z,42.53
2018-03-04T07:19:47.365Z,51.53
2018-03-04T07:22:13.977Z,55.30
2018-03-04T07:24:40.965Z,38.67
2018-03-04T07:27:07.251Z,48.23
2018-03-04T07:29:34.120Z,55.20
2018-03-04T07:32:01.125Z,46.17
2018-03-04T07:34:27.374Z,40.60
2018-03-04T07:36:53.633Z,44.37
2018-03-04T07:39:20.951Z,40.93
2018-03-04T07:41:47.193Z,41.43
2018-03-04T07:44:14.758Z,51.10
2018-03-04T07:46:40.984Z,46.33
2018-03-04T07:49:07.238Z,50.33
2018-03-04T07:51:33.493Z,58.63
2018-03-04T07:54:01.172Z,48.33
2018-03-04T07:56:29.382Z,54.43
2018-03-04T07:58:56.065Z,47.33
2018-03-04T08:01:24.209Z,43.67
2018-03-04T08:03:50.445Z,46.23
2018-03-04T08:06:17.248Z,48.30
2018-03-04T08:08:44.657Z,54.80
2018-03-04T08:11:11.414Z,46.07
2018-03-04T08:13:38.068Z,55.63
2018-03-04T08:16:04.733Z,48.33
2018-03-04T08:18:31.777Z,46.27
2018-03-04T08:20:59.487Z,41.03
2018-03-04T08:23:26.101Z,45.97
2018-03-04T08:25:53.129Z,42.10
2018-03-04T08:28:28.901Z,50.93
2018-03-04T08:30:55.936Z,53.20
2018-03-04T08:33:22.524Z,48.70
2018-03-04T08:35:49.133Z,42.20
2018-03-04T08:38:15.381Z,46.77
2018-03-04T08:40:42.376Z,47.13
2018-03-04T08:43:08.962Z,45.13
2018-03-04T08:45:35.664Z,43.17
2018-03-04T08:48:02.639Z,44.47
2018-03-04T08:50:29.657Z,39.20
2018-03-04T08:52:56.461Z,39.60
2018-03-04T08:55:23.446Z,44.93
2018-03-04T08:57:49.709Z,40.73
2018-03-04T09:00:15.993Z,35.47
2018-03-04T09:02:43.653Z,39.33
2018-03-04T09:05:11.229Z,38.70
2018-03-04T09:07:38.281Z,38.30
2018-03-04T09:10:05.688Z,34.07
2018-03-04T09:12:31.945Z,39.33
2018-03-04T09:14:58.709Z,41.90
2018-03-04T09:17:25.704Z,39.20
2018-03-04T09:19:51.993Z,34.20
2018-03-04T09:22:18.248Z,35.03
2018-03-04T09:24:44.505Z,35.00
2018-03-04T09:27:10.858Z,32.33
2018-03-04T09:29:37.769Z,37.33
2018-03-04T09:32:04.357Z,36.47
2018-03-04T09:34:30.624Z,29.53
2018-03-04T09:36:56.877Z,27.90
2018-03-04T09:39:24.219Z,32.47
2018-03-04T09:41:51.204Z,30.53
2018-03-04T09:44:17.917Z,29.90
2018-03-04T09:46:45.585Z,36.20
2018-03-04T09:49:12.573Z,32.27
2018-03-04T09:51:40.031Z,27.07
2018-03-04T09:54:06.286Z,30.20
2018-03-04T09:56:32.539Z,31.13
2018-03-04T09:58:59.283Z,31.80
2018-03-04T10:01:26.073Z,35.70
2018-03-04T10:03:53.496Z,29.20
2018-03-04T10:06:20.288Z,26.93
2018-03-04T10:08:46.546Z,27.60
2018-03-04T10:11:12.797Z,25.53
2018-03-04T10:13:39.069Z,28.67
2018-03-04T10:16:05.699Z,32.70
2018-03-04T10:18:31.985Z,23.40
2018-03-04T10:20:58.246Z,23.10
2018-03-04T10:23:24.515Z,27.70
2018-03-04T10:25:50.766Z,21.50
2018-03-04T10:28:17.854Z,24.90
2018-03-04T10:30:44.512Z,25.50
2018-03-04T10:33:10.774Z,21.60
2018-03-04T10:35:37.024Z,19.47
2018-03-04T10:38:04.469Z,21.77
2018-03-04T10:40:30.717Z,26.87
2018-03-04T10:42:57.734Z,21.43
2018-03-04T10:45:24.864Z,21.47
2018-03-04T10:47:51.870Z,18.77
2018-03-04T10:50:18.121Z,17.30
2018-03-04T10:52:45.577Z,22.40
2018-03-04T10:55:12.669Z,21.57
2018-03-04T10:57:39.681Z,24.60
2018-03-04T11:00:06.737Z,15.93
2018-03-04T11:02:38.224Z,20.10
2018-03-04T11:05:04.997Z,14.83
2018-03-04T11:07:31.274Z,21.93
2018-03-04T11:09:58.298Z,15.63
2018-03-04T11:12:24.869Z,15.90
2018-03-04T11:14:52.819Z,14.43
2018-03-04T11:17:19.888Z,23.07
2018-03-04T11:19:46.885Z,13.03
2018-03-04T11:22:13.141Z,13.40
2018-03-04T11:24:39.819Z,9.20
2018-03-04T11:27:06.808Z,13.93
2018-03-04T11:29:33.631Z,12.40
2018-03-04T11:31:59.880Z,9.50
2018-03-04T11:34:26.762Z,10.30
2018-03-04T11:36:53.013Z,13.23
2018-03-04T11:39:19.396Z,10.07
2018-03-04T11:41:45.673Z,11.00
2018-03-04T11:44:12.457Z,12.70
2018-03-04T11:46:40.115Z,13.50
2018-03-04T11:49:07.132Z,11.23
2018-03-04T11:51:33.925Z,9.60
2018-03-04T11:54:00.926Z,10.37
2018-03-04T11:56:27.816Z,10.33
2018-03-04T11:58:55.138Z,9.80
2018-03-04T12:01:22.549Z,12.50
2018-03-04T12:03:48.830Z,15.13
2018-03-04T12:06:15.709Z,16.93
2018-03-04T12:08:41.957Z,17.63
2018-03-04T12:11:08.962Z,14.90
2018-03-04T12:13:35.221Z,18.33
2018-03-04T12:16:02.131Z,20.27
2018-03-04T12:18:28.726Z,23.83
2018-03-04T12:20:55.384Z,21.30
2018-03-04T12:23:22.373Z,19.73
2018-03-04T12:25:48.624Z,23.00
2018-03-04T12:28:14.892Z,26.50
2018-03-04T12:30:41.728Z,27.77
2018-03-04T12:33:07.993Z,30.33
2018-03-04T12:35:34.993Z,32.97
2018-03-04T12:38:01.592Z,28.90
2018-03-04T12:40:27.841Z,28.77
2018-03-04T12:42:54.816Z,26.07
2018-03-04T12:45:21.485Z,27.73
2018-03-04T12:47:47.729Z,32.80
2018-03-04T12:50:14.544Z,34.90
2018-03-04T12:52:41.542Z,40.73
2018-03-04T12:55:08.573Z,35.40
2018-03-04T12:57:35.330Z,40.83
2018-03-04T13:00:02.166Z,31.10
2018-03-04T13:02:28.899Z,37.77
2018-03-04T13:04:56.080Z,40.57
2018-03-04T13:07:23.137Z,46.13
2018-03-04T13:09:50.734Z,42.20
2018-03-04T13:12:17.336Z,42.87
2018-03-04T13:14:44.118Z,59.60
2018-03-04T13:17:10.736Z,53.00
2018-03-04T13:19:38.128Z,43.20
2018-03-04T13:22:04.365Z,41.30
2018-03-04T13:24:30.616Z,42.33
2018-03-04T13:26:57.406Z,54.73
2018-03-04T13:29:24.917Z,43.77
2018-03-04T13:31:51.176Z,45.47
2018-03-04T13:34:17.458Z,40.70
2018-03-04T13:36:44.753Z,46.20
2018-03-04T13:39:11.037Z,40.47
2018-03-04T13:41:39.221Z,41.40
2018-03-04T13:44:06.201Z,37.83
2018-03-04T13:46:32.518Z,41.03
2018-03-04T13:48:59.149Z,39.23
2018-03-04T13:51:27.529Z,37.30
2018-03-04T13:53:54.872Z,35.03
2018-03-04T13:56:21.113Z,38.53
2018-03-04T13:58:47.899Z,35.87
2018-03-04T14:01:14.584Z,32.27
2018-03-04T14:03:41.478Z,34.30
2018-03-04T14:06:08.095Z,38.57
2018-03-04T14:08:34.342Z,33.07
2018-03-04T14:11:01.337Z,40.67
2018-03-04T14:13:27.632Z,37.87
2018-03-04T14:15:54.984Z,39.53
2018-03-04T14:18:22.446Z,39.67
2018-03-04T14:20:49.924Z,38.33
2018-03-04T14:23:16.183Z,40.00
2018-03-04T14:25:42.445Z,40.73
2018-03-04T14:28:09.235Z,43.60
2018-03-04T14:30:36.670Z,40.63
2018-03-04T14:33:02.941Z,41.73
2018-03-04T14:35:29.528Z,36.20
2018-03-04T14:37:55.773Z,26.03
2018-03-04T14:40:22.758Z,36.93
2018-03-04T14:42:49.747Z,37.00
2018-03-04T14:45:16.461Z,39.60
2018-03-04T14:47:44.118Z,34.13
2018-03-04T14:50:11.121Z,39.67
2018-03-04T14:52:40.094Z,37.87
2018-03-04T14:55:06.350Z,36.20
2018-03-04T14:57:33.435Z,44.30
2018-03-04T14:59:59.688Z,34.20
2018-03-04T15:02:27.357Z,40.20
2018-03-04T15:04:55.121Z,44.50
2018-03-04T15:07:22.101Z,41.83
2018-03-04T15:09:48.928Z,42.10
2018-03-04T15:12:15.928Z,50.23
2018-03-04T15:14:42.572Z,52.83
2018-03-04T15:17:09.085Z,48.83
2018-03-04T15:19:35.390Z,61.37
2018-03-04T15:22:02.387Z,62.03
2018-03-04T15:24:29.093Z,76.20
2018-03-04T15:26:55.369Z,33.33
2018-03-04T15:29:21.608Z,34.50
2018-03-04T15:31:48.301Z,51.67
2018-03-04T15:34:15.302Z,31.57
2018-03-04T15:36:42.102Z,24.97
2018-03-04T15:39:09.105Z,28.87
2018-03-04T15:41:35.393Z,34.13
2018-03-04T15:44:02.725Z,24.27
2018-03-04T15:46:29.501Z,19.00
2018-03-04T15:48:57.357Z,19.53
2018-03-04T15:54:21.449Z,22.20
2018-03-04T15:56:48.480Z,13.57
2018-03-04T15:59:14.721Z,19.63
2018-03-04T16:01:41.589Z,39.30
2018-03-04T16:04:08.598Z,34.93
2018-03-04T16:06:35.249Z,12.80
2018-03-04T16:09:02.157Z,15.50
2018-03-04T16:11:28.878Z,18.20
2018-03-04T16:13:55.933Z,14.77
2018-03-04T16:16:23.393Z,11.87
2018-03-04T16:18:50.736Z,50.83
2018-03-04T16:21:17.401Z,41.27
2018-03-04T16:23:44.409Z,24.23
2018-03-04T16:26:11.193Z,18.33
2018-03-04T16:28:38.171Z,10.70
2018-03-04T16:31:04.820Z,13.83
2018-03-04T16:33:31.651Z,23.07
2018-03-04T16:35:58.487Z,18.17
2018-03-04T16:38:25.835Z,18.23
2018-03-04T16:40:52.086Z,24.73
2018-03-04T16:43:19.584Z,14.40
2018-03-04T16:45:46.392Z,9.30
2018-03-04T16:48:14.054Z,10.23
2018-03-04T16:50:41.061Z,6.53
2018-03-04T16:53:07.749Z,8.10
2018-03-04T16:55:34.736Z,9.80
2018-03-04T16:58:01.734Z,4.73
2018-03-04T17:00:28.624Z,4.97
2018-03-04T17:02:54.867Z,7.50
2018-03-04T17:05:21.688Z,5.13
2018-03-04T17:07:48.689Z,5.03
2018-03-04T17:10:14.960Z,5.97
2018-03-04T17:12:42.136Z,5.83
2018-03-04T17:15:09.790Z,10.17
2018-03-04T17:17:37.360Z,9.20
2018-03-04T17:20:05.567Z,5.70
2018-03-04T17:22:31.825Z,9.33
2018-03-04T17:24:58.368Z,7.07
2018-03-04T17:27:24.609Z,7.80
2018-03-04T17:29:51.393Z,5.70
2018-03-04T17:32:18.725Z,5.30
2018-03-04T17:34:45.413Z,4.97
2018-03-04T17:37:11.672Z,5.40
2018-03-04T17:39:37.936Z,5.40
2018-03-04T17:42:05.667Z,5.77
2018-03-04T17:44:32.590Z,7.63
2018-03-04T17:46:59.585Z,6.90
2018-03-04T17:49:25.852Z,5.33
2018-03-04T17:51:52.422Z,8.37
2018-03-04T17:54:19.974Z,10.80
2018-03-04T17:56:47.441Z,13.03
2018-03-04T17:59:15.000Z,15.80
2018-03-04T18:01:42.475Z,10.77
2018-03-04T18:04:10.038Z,10.97
2018-03-04T18:06:37.553Z,11.23
2018-03-04T18:09:03.859Z,35.80
2018-03-04T18:11:30.109Z,20.77
2018-03-04T18:13:56.385Z,12.30
2018-03-04T18:16:23.353Z,10.90
2018-03-04T18:18:50.358Z,27.70
2018-03-04T18:21:16.625Z,17.37
2018-03-04T18:23:43.278Z,14.30
2018-03-04T18:26:10.728Z,17.30
2018-03-04T18:28:38.209Z,26.73
2018-03-04T18:31:06.047Z,20.97
2018-03-04T18:33:32.926Z,14.30
2018-03-04T18:35:59.923Z,16.27
2018-03-04T18:38:26.921Z,35.10
2018-03-04T18:40:53.184Z,43.80
2018-03-04T18:43:19.881Z,23.40
2018-03-04T18:45:46.593Z,15.87
2018-03-04T18:48:12.886Z,25.83
2018-03-04T18:50:39.893Z,15.90
2018-03-04T18:53:06.688Z,10.87
2018-03-04T18:55:34.702Z,15.30
2018-03-04T18:58:00.944Z,17.57
2018-03-04T19:00:27.687Z,29.53
2018-03-04T19:02:53.955Z,28.80
2018-03-04T19:05:20.729Z,20.27
2018-03-04T19:07:47.720Z,19.83
2018-03-04T19:10:14.039Z,34.60
2018-03-04T19:12:40.853Z,24.50
2018-03-04T19:15:08.249Z,20.40
2018-03-04T19:17:34.892Z,31.63
2018-03-04T19:20:01.720Z,20.90
2018-03-04T19:22:29.191Z,23.53
2018-03-04T19:24:56.325Z,19.43
2018-03-04T19:27:23.737Z,33.10
2018-03-04T19:29:50.429Z,31.53
2018-03-04T19:32:18.096Z,22.60
2018-03-04T19:34:45.109Z,29.27
2018-03-04T19:37:12.102Z,46.33
2018-03-04T19:39:39.585Z,31.80
2018-03-04T19:42:05.858Z,34.93
2018-03-04T19:44:32.139Z,35.53
2018-03-04T19:46:59.505Z,27.97
2018-03-04T19:49:26.485Z,38.83
2018-03-04T19:51:53.294Z,25.33
2018-03-04T19:54:20.283Z,24.73
2018-03-04T19:56:46.553Z,21.73
2018-03-04T19:59:12.820Z,27.00
2018-03-04T20:01:40.152Z,32.33
2018-03-04T20:04:06.929Z,35.50
2018-03-04T20:06:34.383Z,35.53
2018-03-04T20:09:01.396Z,25.20
2018-03-04T20:11:28.293Z,35.80
2018-03-04T20:13:55.333Z,34.80
2018-03-04T20:16:23.371Z,36.00
2018-03-04T20:18:50.153Z,37.50
2018-03-04T20:21:17.144Z,54.23
2018-03-04T20:23:44.035Z,36.43
2018-03-04T20:26:10.668Z,42.43
2018-03-04T20:28:36.967Z,57.00
2018-03-04T20:31:03.890Z,41.50
2018-03-04T20:33:31.353Z,36.23
2018-03-04T20:35:58.408Z,42.77
2018-03-04T20:38:25.179Z,39.27
2018-03-04T20:40:51.446Z,31.83
2018-03-04T20:43:17.705Z,34.00
2018-03-04T20:45:45.388Z,36.07
2018-03-04T20:48:12.373Z,46.27
2018-03-04T20:50:39.055Z,34.90
2018-03-04T20:53:06.150Z,44.90
2018-03-04T20:55:32.506Z,34.17
2018-03-04T20:57:59.225Z,27.73
2018-03-04T21:00:26.097Z,28.37
2018-03-04T21:02:52.367Z,31.97
2018-03-04T21:05:19.010Z,33.97
2018-03-04T21:07:45.272Z,36.47
2018-03-04T21:10:12.289Z,34.30
2018-03-04T21:12:39.001Z,38.50
2018-03-04T21:15:05.984Z,27.70
2018-03-04T21:17:32.563Z,39.87
2018-03-04T21:19:59.617Z,26.50
2018-03-04T21:22:27.055Z,36.80
2018-03-04T21:24:53.837Z,28.90
2018-03-04T21:27:20.830Z,21.60
2018-03-04T21:29:47.534Z,16.23
2018-03-04T21:32:15.089Z,16.73
2018-03-04T21:34:43.793Z,17.00
2018-03-04T21:37:10.790Z,17.63
2018-03-04T21:39:37.046Z,27.43
2018-03-04T21:42:06.262Z,23.90
2018-03-04T21:44:33.254Z,28.40
2018-03-04T21:46:59.503Z,31.17
2018-03-04T21:49:25.784Z,30.97
2018-03-04T21:51:53.225Z,40.87
2018-03-04T21:54:19.494Z,38.60
2018-03-04T21:56:47.058Z,40.13
2018-03-04T21:59:14.139Z,41.40
2018-03-04T22:01:40.902Z,38.63
2018-03-04T22:04:07.224Z,37.20
2018-03-04T22:06:33.931Z,29.37
2018-03-04T22:09:00.973Z,34.93
2018-03-04T22:11:28.592Z,45.00
2018-03-04T22:13:54.892Z,39.80
2018-03-04T22:16:22.559Z,31.83
2018-03-04T22:18:50.342Z,40.33
2018-03-04T22:21:16.585Z,46.77
2018-03-04T22:23:42.846Z,37.87
2018-03-04T22:26:09.426Z,35.13
2018-03-04T22:28:36.929Z,41.60
2018-03-04T22:31:03.639Z,28.00
2018-03-04T22:33:31.197Z,30.07
2018-03-04T22:35:57.493Z,33.03
2018-03-04T22:38:23.719Z,40.30
2018-03-04T22:40:49.985Z,33.87
2018-03-04T22:43:16.225Z,38.77
2018-03-04T22:45:44.049Z,29.30
2018-03-04T22:48:10.789Z,21.13
2018-03-04T22:50:37.032Z,15.40
2018-03-04T22:53:03.300Z,12.53
2018-03-04T22:55:30.767Z,9.70
2018-03-04T22:57:57.029Z,4.63
2018-03-04T23:00:25.639Z,4.93
2018-03-04T23:02:51.883Z,4.10
2018-03-04T23:05:18.619Z,3.70
2018-03-04T23:07:44.872Z,3.63
2018-03-04T23:10:11.159Z,11.50
2018-03-04T23:12:38.631Z,9.37
2018-03-04T23:15:05.613Z,8.83
2018-03-04T23:17:33.864Z,6.53
2018-03-04T23:20:00.946Z,5.20
2018-03-04T23:22:27.200Z,4.70
2018-03-04T23:24:54.116Z,7.00
2018-03-04T23:27:20.937Z,3.80
2018-03-04T23:29:48.513Z,3.27
2018-03-04T23:32:15.552Z,4.00
2018-03-04T23:34:43.125Z,3.53
2018-03-04T23:37:10.559Z,3.33
2018-03-04T23:39:36.808Z,3.90
2018-03-04T23:42:03.473Z,3.60
2018-03-04T23:44:30.448Z,3.03
2018-03-04T23:46:57.272Z,3.53
2018-03-04T23:49:24.279Z,3.43
2018-03-04T23:51:51.171Z,5.10
2018-03-04T23:54:18.158Z,4.80
2018-03-04T23:56:44.440Z,5.50
2018-03-04T23:59:10.993Z,4.83
